sensor_id;sensor_type;location;lat;lon;timestamp;pressure;altitude;pressure_sealevel;temperature;humidity
29239;BME280;16267;48.194;11.546;2023-02-19T00:01:48;96418.34;;;11.41;64.61
29239;BME280;16267;48.194;11.546;2023-02-19T00:04:20;96416.03;;;11.43;64.38
29239;BME280;16267;48.194;11.546;2023-02-19T00:06:50;96413.66;;;11.52;64.41
29239;BME280;16267;48.194;11.546;2023-02-19T00:09:20;96407.47;;;11.55;64.35
29239;BME280;16267;48.194;11.546;2023-02-19T00:11:46;96407.19;;;11.46;64.55
29239;BME280;16267;48.194;11.546;2023-02-19T00:14:19;96407.22;;;11.42;64.72
29239;BME280;16267;48.194;11.546;2023-02-19T00:16:46;96409.44;;;11.47;64.49
29239;BME280;16267;48.194;11.546;2023-02-19T00:19:23;96401.50;;;11.36;65.23
29239;BME280;16267;48.194;11.546;2023-02-19T00:21:52;96403.72;;;11.45;65.04
29239;BME280;16267;48.194;11.546;2023-02-19T00:24:19;96401.91;;;11.28;65.50
29239;BME280;16267;48.194;11.546;2023-02-19T00:26:46;96399.19;;;11.35;65.60
29239;BME280;16267;48.194;11.546;2023-02-19T00:29:16;96400.31;;;11.37;65.17
29239;BME280;16267;48.194;11.546;2023-02-19T00:31:43;96401.94;;;11.24;65.83
29239;BME280;16267;48.194;11.546;2023-02-19T00:34:10;96391.88;;;11.39;65.47
29239;BME280;16267;48.194;11.546;2023-02-19T00:36:38;96393.00;;;11.38;65.50
29239;BME280;16267;48.194;11.546;2023-02-19T00:39:06;96384.16;;;11.41;65.44
29239;BME280;16267;48.194;11.546;2023-02-19T00:41:33;96383.41;;;11.41;65.29
29239;BME280;16267;48.194;11.546;2023-02-19T00:44:02;96385.38;;;11.33;65.64
29239;BME280;16267;48.194;11.546;2023-02-19T00:46:37;96386.56;;;11.25;66.08
29239;BME280;16267;48.194;11.546;2023-02-19T00:49:05;96380.06;;;11.22;66.12
29239;BME280;16267;48.194;11.546;2023-02-19T00:51:34;96386.22;;;11.23;66.11
29239;BME280;16267;48.194;11.546;2023-02-19T00:54:01;96380.09;;;11.19;66.46
29239;BME280;16267;48.194;11.546;2023-02-19T00:56:27;96370.44;;;11.25;66.40
29239;BME280;16267;48.194;11.546;2023-02-19T00:58:54;96367.41;;;11.23;66.34
29239;BME280;16267;48.194;11.546;2023-02-19T01:01:20;96368.28;;;11.09;66.62
29239;BME280;16267;48.194;11.546;2023-02-19T01:03:47;96379.38;;;11.14;66.58
29239;BME280;16267;48.194;11.546;2023-02-19T01:06:15;96372.06;;;11.15;66.79
29239;BME280;16267;48.194;11.546;2023-02-19T01:08:42;96364.69;;;11.26;66.37
29239;BME280;16267;48.194;11.546;2023-02-19T01:11:08;96378.97;;;11.16;66.28
29239;BME280;16267;48.194;11.546;2023-02-19T01:13:35;96367.00;;;11.24;66.13
29239;BME280;16267;48.194;11.546;2023-02-19T01:16:12;96366.22;;;11.27;66.48
29239;BME280;16267;48.194;11.546;2023-02-19T01:18:38;96363.63;;;11.13;66.47
29239;BME280;16267;48.194;11.546;2023-02-19T01:21:14;96356.31;;;11.17;66.58
29239;BME280;16267;48.194;11.546;2023-02-19T01:23:41;96351.34;;;11.15;66.42
29239;BME280;16267;48.194;11.546;2023-02-19T01:26:12;96360.53;;;11.18;66.64
29239;BME280;16267;48.194;11.546;2023-02-19T01:28:38;96357.47;;;11.20;66.71
29239;BME280;16267;48.194;11.546;2023-02-19T01:31:07;96352.44;;;11.22;66.88
29239;BME280;16267;48.194;11.546;2023-02-19T01:33:35;96342.91;;;11.13;67.20
29239;BME280;16267;48.194;11.546;2023-02-19T01:36:05;96351.38;;;11.12;67.06
29239;BME280;16267;48.194;11.546;2023-02-19T01:38:31;96345.66;;;11.06;67.59
29239;BME280;16267;48.194;11.546;2023-02-19T01:41:00;96342.09;;;11.20;66.89
29239;BME280;16267;48.194;11.546;2023-02-19T01:43:27;96330.56;;;11.23;67.03
29239;BME280;16267;48.194;11.546;2023-02-19T01:45:53;96336.41;;;11.07;67.35
29239;BME280;16267;48.194;11.546;2023-02-19T01:48:29;96337.16;;;11.15;67.08
29239;BME280;16267;48.194;11.546;2023-02-19T01:51:08;96329.81;;;11.19;66.79
29239;BME280;16267;48.194;11.546;2023-02-19T01:53:51;96331.78;;;11.15;67.15
29239;BME280;16267;48.194;11.546;2023-02-19T01:56:18;96330.28;;;11.07;67.59
29239;BME280;16267;48.194;11.546;2023-02-19T01:58:45;96327.91;;;11.16;67.52
29239;BME280;16267;48.194;11.546;2023-02-19T02:01:11;96334.06;;;11.13;68.57
29239;BME280;16267;48.194;11.546;2023-02-19T02:03:46;96325.69;;;11.07;69.74
29239;BME280;16267;48.194;11.546;2023-02-19T02:06:21;96329.53;;;11.03;70.94
29239;BME280;16267;48.194;11.546;2023-02-19T02:08:55;96325.72;;;11.04;71.68
29239;BME280;16267;48.194;11.546;2023-02-19T02:11:47;96326.44;;;11.11;71.72
29239;BME280;16267;48.194;11.546;2023-02-19T02:14:14;96316.13;;;10.99;71.47
29239;BME280;16267;48.194;11.546;2023-02-19T02:22:48;96311.66;;;10.82;71.68
29239;BME280;16267;48.194;11.546;2023-02-19T02:29:01;96313.22;;;10.76;73.06
29239;BME280;16267;48.194;11.546;2023-02-19T02:31:56;96300.66;;;10.62;73.58
29239;BME280;16267;48.194;11.546;2023-02-19T02:34:44;96290.97;;;10.75;73.27
29239;BME280;16267;48.194;11.546;2023-02-19T02:37:14;96292.94;;;10.67;73.34
29239;BME280;16267;48.194;11.546;2023-02-19T02:39:41;96294.94;;;10.56;73.91
29239;BME280;16267;48.194;11.546;2023-02-19T02:42:09;96289.88;;;10.65;73.56
29239;BME280;16267;48.194;11.546;2023-02-19T02:44:57;96284.16;;;10.60;73.63
29239;BME280;16267;48.194;11.546;2023-02-19T02:47:53;96286.81;;;10.63;74.92
29239;BME280;16267;48.194;11.546;2023-02-19T02:50:24;96284.22;;;10.49;77.30
29239;BME280;16267;48.194;11.546;2023-02-19T02:52:57;96280.03;;;10.44;80.72
29239;BME280;16267;48.194;11.546;2023-02-19T02:55:45;96273.94;;;10.37;83.26
29239;BME280;16267;48.194;11.546;2023-02-19T02:58:13;96267.84;;;10.29;84.72
29239;BME280;16267;48.194;11.546;2023-02-19T03:00:43;96274.34;;;10.32;85.34
29239;BME280;16267;48.194;11.546;2023-02-19T03:03:31;96267.84;;;10.25;86.18
29239;BME280;16267;48.194;11.546;2023-02-19T03:06:04;96274.72;;;10.34;85.82
29239;BME280;16267;48.194;11.546;2023-02-19T03:09:11;96269.81;;;10.14;87.81
29239;BME280;16267;48.194;11.546;2023-02-19T03:11:30;96269.03;;;10.10;88.43
29239;BME280;16267;48.194;11.546;2023-02-19T03:14:35;96262.19;;;9.95;89.27
29239;BME280;16267;48.194;11.546;2023-02-19T03:17:37;96263.03;;;9.81;91.23
29239;BME280;16267;48.194;11.546;2023-02-19T03:20:23;96256.84;;;9.91;91.67
29239;BME280;16267;48.194;11.546;2023-02-19T03:22:52;96261.09;;;9.78;92.30
29239;BME280;16267;48.194;11.546;2023-02-19T03:25:27;96256.50;;;9.86;92.42
29239;BME280;16267;48.194;11.546;2023-02-19T03:28:15;96262.69;;;9.68;93.54
29239;BME280;16267;48.194;11.546;2023-02-19T03:30:49;96256.19;;;9.55;94.64
29239;BME280;16267;48.194;11.546;2023-02-19T03:33:21;96268.44;;;9.56;94.67
29239;BME280;16267;48.194;11.546;2023-02-19T03:35:58;96247.78;;;9.49;95.77
29239;BME280;16267;48.194;11.546;2023-02-19T03:43:56;96242.47;;;9.31;97.27
29239;BME280;16267;48.194;11.546;2023-02-19T04:00:19;96262.75;;;8.97;100.00
29239;BME280;16267;48.194;11.546;2023-02-19T04:05:43;96262.72;;;8.89;100.00
29239;BME280;16267;48.194;11.546;2023-02-19T04:08:18;96265.44;;;8.97;100.00
29239;BME280;16267;48.194;11.546;2023-02-19T04:10:46;96257.78;;;9.02;100.00
29239;BME280;16267;48.194;11.546;2023-02-19T04:13:42;96248.59;;;8.89;100.00
29239;BME280;16267;48.194;11.546;2023-02-19T04:16:18;96246.28;;;8.80;100.00
29239;BME280;16267;48.194;11.546;2023-02-19T04:18:47;96246.69;;;8.79;100.00
29239;BME280;16267;48.194;11.546;2023-02-19T04:21:15;96230.63;;;8.79;100.00
29239;BME280;16267;48.194;11.546;2023-02-19T04:23:43;96239.78;;;8.88;100.00
29239;BME280;16267;48.194;11.546;2023-02-19T04:26:11;96240.19;;;8.76;100.00
29239;BME280;16267;48.194;11.546;2023-02-19T04:28:38;96258.53;;;8.85;100.00
29239;BME280;16267;48.194;11.546;2023-02-19T04:31:04;96256.63;;;8.82;100.00
29239;BME280;16267;48.194;11.546;2023-02-19T04:33:30;96247.06;;;8.81;100.00
29239;BME280;16267;48.194;11.546;2023-02-19T04:35:56;96248.56;;;8.60;100.00
29239;BME280;16267;48.194;11.546;2023-02-19T04:38:22;96263.88;;;8.78;100.00
29239;BME280;16267;48.194;11.546;2023-02-19T04:40:50;96260.44;;;8.77;100.00
29239;BME280;16267;48.194;11.546;2023-02-19T04:43:17;96262.34;;;8.77;99.82
29239;BME280;16267;48.194;11.546;2023-02-19T04:45:43;96271.53;;;8.79;100.00
29239;BME280;16267;48.194;11.546;2023-02-19T04:48:09;96260.06;;;8.86;99.30
29239;BME280;16267;48.194;11.546;2023-02-19T04:50:38;96271.13;;;8.63;100.00
29239;BME280;16267;48.194;11.546;2023-02-19T04:53:05;96262.72;;;8.54;100.00
29239;BME280;16267;48.194;11.546;2023-02-19T04:55:31;96264.63;;;8.71;99.97
29239;BME280;16267;48.194;11.546;2023-02-19T04:57:56;96264.25;;;8.73;99.48
29239;BME280;16267;48.194;11.546;2023-02-19T05:00:22;96273.06;;;8.77;99.17
29239;BME280;16267;48.194;11.546;2023-02-19T05:02:48;96274.22;;;8.83;98.67
29239;BME280;16267;48.194;11.546;2023-02-19T05:05:14;96276.09;;;8.75;98.54
29239;BME280;16267;48.194;11.546;2023-02-19T05:07:40;96277.25;;;8.67;99.23
29239;BME280;16267;48.194;11.546;2023-02-19T05:10:06;96270.38;;;8.77;98.42
29239;BME280;16267;48.194;11.546;2023-02-19T05:12:31;96271.16;;;8.77;98.22
29239;BME280;16267;48.194;11.546;2023-02-19T05:14:57;96250.88;;;8.83;97.01
29239;BME280;16267;48.194;11.546;2023-02-19T05:17:23;96268.44;;;8.63;97.86
29239;BME280;16267;48.194;11.546;2023-02-19T05:19:48;96282.97;;;8.58;98.45
29239;BME280;16267;48.194;11.546;2023-02-19T05:22:14;96276.88;;;8.76;98.26
29239;BME280;16267;48.194;11.546;2023-02-19T05:24:40;96278.03;;;8.75;97.54
29239;BME280;16267;48.194;11.546;2023-02-19T05:27:06;96283.00;;;8.76;98.18
29239;BME280;16267;48.194;11.546;2023-02-19T05:29:32;96278.00;;;8.78;97.90
29239;BME280;16267;48.194;11.546;2023-02-19T05:31:57;96299.06;;;8.83;96.93
29239;BME280;16267;48.194;11.546;2023-02-19T05:34:27;96291.00;;;8.73;97.13
29239;BME280;16267;48.194;11.546;2023-02-19T05:36:53;96286.44;;;8.91;96.51
29239;BME280;16267;48.194;11.546;2023-02-19T05:39:19;96297.53;;;9.00;95.90
29239;BME280;16267;48.194;11.546;2023-02-19T05:41:45;96296.38;;;8.98;94.60
29239;BME280;16267;48.194;11.546;2023-02-19T05:44:11;96302.53;;;8.98;95.31
29239;BME280;16267;48.194;11.546;2023-02-19T05:46:37;96307.09;;;8.98;94.74
29239;BME280;16267;48.194;11.546;2023-02-19T05:49:29;96307.50;;;9.10;95.06
29239;BME280;16267;48.194;11.546;2023-02-19T05:52:03;96306.75;;;9.06;94.46
29239;BME280;16267;48.194;11.546;2023-02-19T05:54:30;96310.56;;;9.02;94.14
29239;BME280;16267;48.194;11.546;2023-02-19T05:56:55;96312.09;;;8.96;94.89
29239;BME280;16267;48.194;11.546;2023-02-19T05:59:24;96312.44;;;8.98;94.95
29239;BME280;16267;48.194;11.546;2023-02-19T06:01:52;96319.34;;;9.02;95.07
29239;BME280;16267;48.194;11.546;2023-02-19T06:04:18;96312.47;;;9.01;93.85
29239;BME280;16267;48.194;11.546;2023-02-19T06:06:46;96313.22;;;8.94;94.48
29239;BME280;16267;48.194;11.546;2023-02-19T06:09:12;96314.75;;;8.99;94.08
29239;BME280;16267;48.194;11.546;2023-02-19T06:11:38;96312.44;;;8.98;94.10
29239;BME280;16267;48.194;11.546;2023-02-19T06:14:05;96323.53;;;8.89;93.86
29239;BME280;16267;48.194;11.546;2023-02-19T06:16:31;96319.34;;;8.95;94.39
29239;BME280;16267;48.194;11.546;2023-02-19T06:19:00;96324.31;;;9.00;94.28
29239;BME280;16267;48.194;11.546;2023-02-19T06:21:26;96333.50;;;8.99;93.21
29239;BME280;16267;48.194;11.546;2023-02-19T06:23:53;96327.00;;;9.07;93.79
29239;BME280;16267;48.194;11.546;2023-02-19T06:26:24;96321.25;;;9.09;93.26
29239;BME280;16267;48.194;11.546;2023-02-19T06:28:51;96336.19;;;8.99;92.43
29239;BME280;16267;48.194;11.546;2023-02-19T06:31:19;96336.97;;;9.07;92.87
29239;BME280;16267;48.194;11.546;2023-02-19T06:33:46;96338.88;;;9.10;92.66
29239;BME280;16267;48.194;11.546;2023-02-19T06:36:16;96336.19;;;8.99;92.46
29239;BME280;16267;48.194;11.546;2023-02-19T06:38:43;96328.16;;;8.99;92.66
29239;BME280;16267;48.194;11.546;2023-02-19T06:41:17;96341.16;;;8.97;92.43
29239;BME280;16267;48.194;11.546;2023-02-19T06:43:44;96341.91;;;8.98;92.58
29239;BME280;16267;48.194;11.546;2023-02-19T06:46:11;96356.44;;;8.97;92.88
29239;BME280;16267;48.194;11.546;2023-02-19T06:48:39;96357.19;;;8.97;92.72
29239;BME280;16267;48.194;11.546;2023-02-19T06:51:06;96349.97;;;9.05;92.56
29239;BME280;16267;48.194;11.546;2023-02-19T06:53:32;96354.16;;;8.99;93.13
29239;BME280;16267;48.194;11.546;2023-02-19T06:56:33;96370.25;;;9.13;91.84
29239;BME280;16267;48.194;11.546;2023-02-19T06:59:03;96359.50;;;9.02;92.22
29239;BME280;16267;48.194;11.546;2023-02-19T07:01:31;96379.03;;;9.06;92.44
29239;BME280;16267;48.194;11.546;2023-02-19T07:03:57;96380.16;;;9.05;91.83
29239;BME280;16267;48.194;11.546;2023-02-19T07:06:24;96378.28;;;9.09;91.83
29239;BME280;16267;48.194;11.546;2023-02-19T07:08:52;96390.09;;;8.98;91.93
29239;BME280;16267;48.194;11.546;2023-02-19T07:11:19;96384.78;;;9.15;92.40
29239;BME280;16267;48.194;11.546;2023-02-19T07:13:44;96396.66;;;9.14;91.87
29239;BME280;16267;48.194;11.546;2023-02-19T07:16:11;96401.25;;;9.25;91.73
29239;BME280;16267;48.194;11.546;2023-02-19T07:18:38;96388.63;;;9.25;91.28
29239;BME280;16267;48.194;11.546;2023-02-19T07:21:13;96398.97;;;9.27;91.04
29239;BME280;16267;48.194;11.546;2023-02-19T07:23:40;96400.13;;;9.26;91.03
29239;BME280;16267;48.194;11.546;2023-02-19T07:26:17;96408.13;;;9.19;91.34
29239;BME280;16267;48.194;11.546;2023-02-19T07:28:46;96403.56;;;9.26;91.38
29239;BME280;16267;48.194;11.546;2023-02-19T07:31:14;96402.78;;;9.33;90.94
29239;BME280;16267;48.194;11.546;2023-02-19T07:33:44;96412.34;;;9.30;91.09
29239;BME280;16267;48.194;11.546;2023-02-19T07:36:13;96417.69;;;9.16;91.40
29239;BME280;16267;48.194;11.546;2023-02-19T07:38:39;96421.16;;;9.27;92.23
29239;BME280;16267;48.194;11.546;2023-02-19T07:41:06;96421.53;;;9.26;92.37
29239;BME280;16267;48.194;11.546;2023-02-19T07:43:37;96428.78;;;9.22;92.33
29239;BME280;16267;48.194;11.546;2023-02-19T07:46:10;96428.81;;;9.29;92.51
29239;BME280;16267;48.194;11.546;2023-02-19T07:48:37;96437.63;;;9.40;92.43
29239;BME280;16267;48.194;11.546;2023-02-19T07:51:05;96444.13;;;9.46;92.38
29239;BME280;16267;48.194;11.546;2023-02-19T07:53:33;96449.88;;;9.34;93.35
29239;BME280;16267;48.194;11.546;2023-02-19T07:56:02;96446.44;;;9.51;93.30
29239;BME280;16267;48.194;11.546;2023-02-19T07:58:28;96453.34;;;9.45;94.77
29239;BME280;16267;48.194;11.546;2023-02-19T08:00:55;96457.91;;;9.34;94.77
29239;BME280;16267;48.194;11.546;2023-02-19T08:03:20;96475.94;;;9.48;94.71
29239;BME280;16267;48.194;11.546;2023-02-19T08:05:46;96470.13;;;9.28;93.98
29239;BME280;16267;48.194;11.546;2023-02-19T08:08:15;96477.78;;;9.33;94.76
29239;BME280;16267;48.194;11.546;2023-02-19T08:10:41;96478.56;;;9.33;94.21
29239;BME280;16267;48.194;11.546;2023-02-19T08:13:29;96481.59;;;9.25;94.32
29239;BME280;16267;48.194;11.546;2023-02-19T08:18:35;96483.19;;;9.51;93.06
29239;BME280;16267;48.194;11.546;2023-02-19T08:21:01;96481.28;;;9.51;92.38
29239;BME280;16267;48.194;11.546;2023-02-19T08:23:30;96480.88;;;9.53;92.24
29239;BME280;16267;48.194;11.546;2023-02-19T08:25:57;96484.75;;;9.63;92.64
29239;BME280;16267;48.194;11.546;2023-02-19T08:28:24;96485.13;;;9.65;91.22
29239;BME280;16267;48.194;11.546;2023-02-19T08:30:50;96492.81;;;9.73;91.36
29239;BME280;16267;48.194;11.546;2023-02-19T08:33:19;96491.63;;;9.64;89.89
29239;BME280;16267;48.194;11.546;2023-02-19T08:35:46;96489.31;;;9.55;90.33
29239;BME280;16267;48.194;11.546;2023-02-19T08:38:13;96492.75;;;9.55;90.59
29239;BME280;16267;48.194;11.546;2023-02-19T08:40:41;96496.59;;;9.58;90.28
29239;BME280;16267;48.194;11.546;2023-02-19T08:43:13;96492.00;;;9.48;89.39
29239;BME280;16267;48.194;11.546;2023-02-19T08:45:42;96501.94;;;9.44;88.44
29239;BME280;16267;48.194;11.546;2023-02-19T08:48:10;96516.13;;;9.66;88.14
29239;BME280;16267;48.194;11.546;2023-02-19T08:50:37;96511.19;;;9.68;87.91
29239;BME280;16267;48.194;11.546;2023-02-19T08:53:05;96506.94;;;9.67;87.00
29239;BME280;16267;48.194;11.546;2023-02-19T08:55:31;96519.97;;;9.65;85.45
29239;BME280;16267;48.194;11.546;2023-02-19T08:57:57;96510.41;;;9.67;85.56
29239;BME280;16267;48.194;11.546;2023-02-19T09:00:23;96523.06;;;9.85;85.07
29239;BME280;16267;48.194;11.546;2023-02-19T09:02:49;96521.91;;;10.00;84.88
29239;BME280;16267;48.194;11.546;2023-02-19T09:05:16;96522.69;;;10.04;83.27
29239;BME280;16267;48.194;11.546;2023-02-19T09:07:44;96531.47;;;9.72;81.94
29239;BME280;16267;48.194;11.546;2023-02-19T09:10:11;96527.25;;;9.89;82.26
29239;BME280;16267;48.194;11.546;2023-02-19T09:12:38;96537.63;;;10.16;82.11
29239;BME280;16267;48.194;11.546;2023-02-19T09:15:06;96531.50;;;10.12;81.50
29239;BME280;16267;48.194;11.546;2023-02-19T09:17:32;96526.94;;;10.34;82.73
29239;BME280;16267;48.194;11.546;2023-02-19T09:19:58;96540.34;;;10.37;81.25
29239;BME280;16267;48.194;11.546;2023-02-19T09:22:23;96539.97;;;10.42;79.71
29239;BME280;16267;48.194;11.546;2023-02-19T09:24:49;96545.34;;;10.32;73.39
29239;BME280;16267;48.194;11.546;2023-02-19T09:27:19;96546.84;;;10.18;69.75
29239;BME280;16267;48.194;11.546;2023-02-19T09:29:45;96551.06;;;10.12;70.29
29239;BME280;16267;48.194;11.546;2023-02-19T09:32:11;96551.03;;;10.16;71.23
29239;BME280;16267;48.194;11.546;2023-02-19T09:34:37;96538.78;;;10.11;70.37
29239;BME280;16267;48.194;11.546;2023-02-19T09:37:07;96567.50;;;10.11;70.72
29239;BME280;16267;48.194;11.546;2023-02-19T09:39:34;96561.38;;;10.14;71.50
29239;BME280;16267;48.194;11.546;2023-02-19T09:42:17;96564.84;;;10.03;70.26
29239;BME280;16267;48.194;11.546;2023-02-19T09:44:47;96570.22;;;10.03;71.41
29239;BME280;16267;48.194;11.546;2023-02-19T09:47:23;96567.50;;;9.96;71.76
29239;BME280;16267;48.194;11.546;2023-02-19T09:49:58;96568.66;;;9.81;70.52
29239;BME280;16267;48.194;11.546;2023-02-19T09:52:54;96564.81;;;9.89;70.08
29239;BME280;16267;48.194;11.546;2023-02-19T09:55:35;96567.06;;;9.62;67.86
29239;BME280;16267;48.194;11.546;2023-02-19T09:58:26;96570.50;;;9.70;67.81
29239;BME280;16267;48.194;11.546;2023-02-19T10:00:56;96563.63;;;9.72;66.91
29239;BME280;16267;48.194;11.546;2023-02-19T10:03:26;96562.13;;;9.89;68.62
29239;BME280;16267;48.194;11.546;2023-02-19T10:06:11;96556.78;;;10.00;68.79
29239;BME280;16267;48.194;11.546;2023-02-19T10:08:39;96558.72;;;10.07;68.65
29239;BME280;16267;48.194;11.546;2023-02-19T10:11:06;96554.16;;;10.39;67.55
29239;BME280;16267;48.194;11.546;2023-02-19T10:13:47;96540.31;;;10.62;66.10
29239;BME280;16267;48.194;11.546;2023-02-19T10:16:23;96557.09;;;11.06;67.10
29239;BME280;16267;48.194;11.546;2023-02-19T10:18:49;96544.53;;;11.66;63.40
29239;BME280;16267;48.194;11.546;2023-02-19T10:21:26;96553.69;;;11.86;60.30
29239;BME280;16267;48.194;11.546;2023-02-19T10:24:01;96553.69;;;11.86;61.23
29239;BME280;16267;48.194;11.546;2023-02-19T10:26:27;96571.41;;;11.66;61.64
29239;BME280;16267;48.194;11.546;2023-02-19T10:28:56;96576.06;;;11.61;62.31
29239;BME280;16267;48.194;11.546;2023-02-19T10:31:23;96561.09;;;11.57;62.88
29239;BME280;16267;48.194;11.546;2023-02-19T10:33:58;96565.31;;;11.58;63.85
29239;BME280;16267;48.194;11.546;2023-02-19T10:36:39;96558.03;;;11.55;63.13
29239;BME280;16267;48.194;11.546;2023-02-19T10:41:50;96569.06;;;11.75;63.34
29239;BME280;16267;48.194;11.546;2023-02-19T10:44:31;96570.16;;;11.84;63.38
29239;BME280;16267;48.194;11.546;2023-02-19T10:47:00;96555.47;;;12.03;63.48
29239;BME280;16267;48.194;11.546;2023-02-19T10:49:38;96557.88;;;11.83;59.47
29239;BME280;16267;48.194;11.546;2023-02-19T10:52:29;96558.25;;;11.86;59.75
29239;BME280;16267;48.194;11.546;2023-02-19T10:55:23;96547.03;;;12.01;58.53
29239;BME280;16267;48.194;11.546;2023-02-19T10:57:49;96547.31;;;12.14;57.31
29239;BME280;16267;48.194;11.546;2023-02-19T11:02:42;96548.19;;;12.49;56.92
29239;BME280;16267;48.194;11.546;2023-02-19T11:12:50;96535.78;;;12.59;54.75
29239;BME280;16267;48.194;11.546;2023-02-19T11:15:38;96534.50;;;12.29;54.46
29239;BME280;16267;48.194;11.546;2023-02-19T11:20:55;96543.56;;;12.49;54.52
29239;BME280;16267;48.194;11.546;2023-02-19T11:23:44;96532.53;;;12.37;55.39
29239;BME280;16267;48.194;11.546;2023-02-19T11:26:18;96535.59;;;12.35;55.34
29239;BME280;16267;48.194;11.546;2023-02-19T11:28:45;96554.78;;;12.41;53.64
29239;BME280;16267;48.194;11.546;2023-02-19T11:31:23;96550.38;;;12.16;55.52
29239;BME280;16267;48.194;11.546;2023-02-19T11:36:37;96546.59;;;12.07;55.65
29239;BME280;16267;48.194;11.546;2023-02-19T11:39:26;96547.78;;;12.05;56.10
29239;BME280;16267;48.194;11.546;2023-02-19T11:48:19;96564.38;;;11.02;61.53
29239;BME280;16267;48.194;11.546;2023-02-19T11:56:36;96574.34;;;11.08;58.35
29239;BME280;16267;48.194;11.546;2023-02-19T11:59:25;96575.91;;;10.91;58.42
29239;BME280;16267;48.194;11.546;2023-02-19T12:11:38;96568.97;;;11.08;57.91
29239;BME280;16267;48.194;11.546;2023-02-19T12:14:52;96577.03;;;11.05;58.26
29239;BME280;16267;48.194;11.546;2023-02-19T12:18:00;96572.09;;;10.92;57.52
29239;BME280;16267;48.194;11.546;2023-02-19T12:21:21;96568.59;;;11.03;57.46
29239;BME280;16267;48.194;11.546;2023-02-19T12:38:42;96608.91;;;10.99;58.24
29239;BME280;16267;48.194;11.546;2023-02-19T12:41:43;96612.34;;;11.00;57.54
29239;BME280;16267;48.194;11.546;2023-02-19T12:48:13;96618.53;;;10.82;60.08
29239;BME280;16267;48.194;11.546;2023-02-19T12:50:42;96610.47;;;10.68;58.13
29239;BME280;16267;48.194;11.546;2023-02-19T12:56:46;96608.56;;;10.79;56.97
29239;BME280;16267;48.194;11.546;2023-02-19T13:05:01;96612.78;;;10.66;56.47
29239;BME280;16267;48.194;11.546;2023-02-19T13:07:43;96629.66;;;10.70;55.68
29239;BME280;16267;48.194;11.546;2023-02-19T13:13:05;96601.66;;;10.75;57.53
29239;BME280;16267;48.194;11.546;2023-02-19T13:15:46;96613.53;;;10.66;57.72
29239;BME280;16267;48.194;11.546;2023-02-19T13:18:23;96613.94;;;10.65;58.20
29239;BME280;16267;48.194;11.546;2023-02-19T13:20:51;96607.00;;;10.75;58.97
29239;BME280;16267;48.194;11.546;2023-02-19T13:23:35;96617.00;;;10.70;59.68
29239;BME280;16267;48.194;11.546;2023-02-19T13:26:46;96621.97;;;10.61;60.06
29239;BME280;16267;48.194;11.546;2023-02-19T13:29:39;96620.84;;;10.62;59.65
29239;BME280;16267;48.194;11.546;2023-02-19T13:38:18;96590.13;;;10.85;59.29
29239;BME280;16267;48.194;11.546;2023-02-19T13:40:58;96584.38;;;10.79;58.03
29239;BME280;16267;48.194;11.546;2023-02-19T13:43:35;96592.09;;;10.70;58.40
29239;BME280;16267;48.194;11.546;2023-02-19T13:46:07;96603.19;;;10.76;58.06
29239;BME280;16267;48.194;11.546;2023-02-19T13:48:39;96595.94;;;10.51;58.94
29239;BME280;16267;48.194;11.546;2023-02-19T14:04:39;96603.19;;;10.68;58.23
29239;BME280;16267;48.194;11.546;2023-02-19T14:14:40;96604.34;;;10.67;57.98
29239;BME280;16267;48.194;11.546;2023-02-19T14:25:42;96597.03;;;10.18;58.79
29239;BME280;16267;48.194;11.546;2023-02-19T14:30:59;96603.16;;;10.11;60.45
29239;BME280;16267;48.194;11.546;2023-02-19T14:33:32;96611.22;;;10.18;60.43
29239;BME280;16267;48.194;11.546;2023-02-19T14:39:37;96596.28;;;10.17;60.75
29239;BME280;16267;48.194;11.546;2023-02-19T14:42:21;96600.88;;;10.20;61.08
29239;BME280;16267;48.194;11.546;2023-02-19T14:45:08;96605.44;;;10.05;61.23
29239;BME280;16267;48.194;11.546;2023-02-19T14:47:35;96607.34;;;10.05;61.53
29239;BME280;16267;48.194;11.546;2023-02-19T14:50:11;96605.84;;;10.18;61.85
29239;BME280;16267;48.194;11.546;2023-02-19T14:52:43;96623.88;;;10.18;61.05
29239;BME280;16267;48.194;11.546;2023-02-19T14:55:24;96629.59;;;10.16;61.14
29239;BME280;16267;48.194;11.546;2023-02-19T14:57:54;96629.28;;;10.29;61.19
29239;BME280;16267;48.194;11.546;2023-02-19T15:02:56;96638.06;;;10.25;61.48
29239;BME280;16267;48.194;11.546;2023-02-19T15:05:32;96633.44;;;10.19;61.16
29239;BME280;16267;48.194;11.546;2023-02-19T15:10:52;96636.88;;;10.19;61.24
29239;BME280;16267;48.194;11.546;2023-02-19T15:13:36;96649.53;;;10.15;61.32
29239;BME280;16267;48.194;11.546;2023-02-19T15:16:08;96654.13;;;10.15;61.47
29239;BME280;16267;48.194;11.546;2023-02-19T15:18:34;96655.31;;;10.28;61.43
29239;BME280;16267;48.194;11.546;2023-02-19T15:21:03;96666.03;;;10.28;61.70
29239;BME280;16267;48.194;11.546;2023-02-19T15:23:30;96666.03;;;10.28;61.67
29239;BME280;16267;48.194;11.546;2023-02-19T15:25:58;96669.47;;;10.25;61.69
29239;BME280;16267;48.194;11.546;2023-02-19T15:33:22;96668.75;;;10.32;61.52
29239;BME280;16267;48.194;11.546;2023-02-19T15:35:57;96682.81;;;10.00;62.11
29239;BME280;16267;48.194;11.546;2023-02-19T15:38:24;96675.22;;;10.20;61.99
29239;BME280;16267;48.194;11.546;2023-02-19T15:40:51;96666.00;;;10.14;62.01
29239;BME280;16267;48.194;11.546;2023-02-19T15:43:42;96670.22;;;10.18;61.98
29239;BME280;16267;48.194;11.546;2023-02-19T15:46:22;96663.69;;;10.19;62.03
29239;BME280;16267;48.194;11.546;2023-02-19T15:49:17;96676.75;;;10.21;62.04
29239;BME280;16267;48.194;11.546;2023-02-19T15:52:03;96671.75;;;10.12;61.96
29239;BME280;16267;48.194;11.546;2023-02-19T15:55:00;96675.19;;;10.16;61.77
29239;BME280;16267;48.194;11.546;2023-02-19T15:57:32;96666.00;;;10.07;62.31